createdAt,value
2018-08-22T00:01:30.900Z,96698.00
2018-08-22T00:04:01.913Z,96703.00
2018-08-22T00:06:32.032Z,96696.00
2018-08-22T00:09:02.145Z,96696.00
2018-08-22T00:11:32.238Z,96696.00
2018-08-22T00:14:02.357Z,96700.00
2018-08-22T00:16:32.461Z,96690.00
2018-08-22T00:19:02.566Z,96701.00
2018-08-22T00:21:32.669Z,96696.00
2018-08-22T00:24:03.056Z,96688.00
2018-08-22T00:26:33.173Z,96685.00
2018-08-22T00:29:03.291Z,96682.00
2018-08-22T00:31:33.385Z,96684.00
2018-08-22T00:34:03.462Z,96685.00
2018-08-22T00:36:33.561Z,96680.00
2018-08-22T00:39:05.148Z,96681.00
2018-08-22T00:41:35.241Z,96676.00
2018-08-22T00:44:05.369Z,96674.00
2018-08-22T00:46:35.452Z,96666.00
2018-08-22T00:49:05.581Z,96675.00
2018-08-22T00:51:35.771Z,96673.00
2018-08-22T00:54:05.884Z,96669.00
2018-08-22T00:56:35.977Z,96674.00
2018-08-22T00:59:06.087Z,96671.00
2018-08-22T01:01:36.202Z,96668.00
2018-08-22T01:04:06.365Z,96672.00
2018-08-22T01:06:36.459Z,96667.00
2018-08-22T01:09:08.495Z,96667.00
2018-08-22T01:11:38.913Z,96668.00
2018-08-22T01:14:09.016Z,96673.00
2018-08-22T01:16:39.100Z,96665.00
2018-08-22T01:19:09.185Z,96671.00
2018-08-22T01:21:39.306Z,96672.00
2018-08-22T01:24:09.396Z,96674.00
2018-08-22T01:26:39.531Z,96669.00
2018-08-22T01:29:09.672Z,96668.00
2018-08-22T01:31:39.734Z,96677.00
2018-08-22T01:34:09.828Z,96676.00
2018-08-22T01:36:39.915Z,96679.00
2018-08-22T01:39:10.024Z,96674.00
2018-08-22T01:41:40.101Z,96665.00
2018-08-22T01:44:10.452Z,96670.00
2018-08-22T01:46:40.537Z,96665.00
2018-08-22T01:49:10.624Z,96664.00
2018-08-22T01:51:40.689Z,96671.00
2018-08-22T01:54:10.789Z,96665.00
2018-08-22T01:56:40.885Z,96661.00
2018-08-22T01:59:10.999Z,96665.00
2018-08-22T02:01:41.095Z,96664.00
2018-08-22T02:04:11.228Z,96666.00
2018-08-22T02:06:41.317Z,96668.00
2018-08-22T02:09:12.499Z,96671.00
2018-08-22T02:11:42.617Z,96670.00
2018-08-22T02:14:12.756Z,96661.00
2018-08-22T02:16:42.841Z,96662.00
2018-08-22T02:19:12.928Z,96655.00
2018-08-22T02:21:43.009Z,96650.00
2018-08-22T02:24:13.113Z,96658.00
2018-08-22T02:26:43.205Z,96662.00
2018-08-22T02:29:13.302Z,96662.00
2018-08-22T02:31:43.478Z,96662.00
2018-08-22T02:34:13.564Z,96650.00
2018-08-22T02:36:43.662Z,96653.00
2018-08-22T02:39:13.772Z,96656.00
2018-08-22T02:41:43.880Z,96659.00
2018-08-22T02:44:13.985Z,96650.00
2018-08-22T02:46:44.068Z,96652.00
2018-08-22T02:49:14.704Z,96655.00
2018-08-22T02:51:44.780Z,96662.00
2018-08-22T02:54:14.876Z,96664.00
2018-08-22T02:56:44.957Z,96657.00
2018-08-22T02:59:15.064Z,96653.00
2018-08-22T03:01:45.231Z,96650.00
2018-08-22T03:04:15.332Z,96651.00
2018-08-22T03:06:45.412Z,96654.00
2018-08-22T03:09:15.516Z,96646.00
2018-08-22T03:11:45.620Z,96658.00
2018-08-22T03:14:15.733Z,96658.00
2018-08-22T03:16:45.821Z,96656.00
2018-08-22T03:19:15.928Z,96663.00
2018-08-22T03:21:46.045Z,96670.00
2018-08-22T03:24:16.188Z,96668.00
2018-08-22T03:26:46.304Z,96665.00
2018-08-22T03:29:16.400Z,96662.00
2018-08-22T03:31:46.536Z,96666.00
2018-08-22T03:34:16.660Z,96666.00
2018-08-22T03:36:46.788Z,96670.00
2018-08-22T03:39:16.893Z,96671.00
2018-08-22T03:41:47.031Z,96663.00
2018-08-22T03:44:17.163Z,96671.00
2018-08-22T03:46:47.257Z,96668.00
2018-08-22T03:49:17.376Z,96679.00
2018-08-22T03:51:47.497Z,96678.00
2018-08-22T03:54:17.629Z,96683.00
2018-08-22T03:56:47.749Z,96689.00
2018-08-22T03:59:17.852Z,96695.00
2018-08-22T04:01:47.976Z,96694.00
2018-08-22T04:04:18.103Z,96689.00
2018-08-22T04:06:48.239Z,96693.00
2018-08-22T04:09:18.357Z,96697.00
2018-08-22T04:11:48.474Z,96698.00
2018-08-22T04:14:18.746Z,96702.00
2018-08-22T04:16:50.171Z,96697.00
2018-08-22T04:22:46.180Z,96696.00
2018-08-22T04:25:19.818Z,96701.00
2018-08-22T04:28:05.136Z,96703.00
2018-08-22T04:30:36.831Z,96708.00
2018-08-22T04:33:26.714Z,96705.00
2018-08-22T04:35:58.337Z,96704.00
2018-08-22T04:41:38.185Z,96712.00
2018-08-22T04:44:16.570Z,96709.00
2018-08-22T04:46:53.220Z,96714.00
2018-08-22T04:49:23.388Z,96721.00
2018-08-22T04:58:18.685Z,96724.00
2018-08-22T05:04:08.523Z,96732.00
2018-08-22T05:06:38.672Z,96731.00
2018-08-22T05:09:09.502Z,96733.00
2018-08-22T05:11:39.661Z,96740.00
2018-08-22T05:14:14.826Z,96745.00
2018-08-22T05:16:45.950Z,96741.00
2018-08-22T05:19:16.076Z,96739.00
2018-08-22T05:21:46.221Z,96739.00
2018-08-22T05:24:16.452Z,96736.00
2018-08-22T05:26:46.572Z,96736.00
2018-08-22T05:29:16.700Z,96752.00
2018-08-22T05:31:46.854Z,96752.00
2018-08-22T05:34:17.104Z,96757.00
2018-08-22T05:36:47.193Z,96749.00
2018-08-22T05:42:36.517Z,96755.00
2018-08-22T05:45:07.073Z,96760.00
2018-08-22T05:47:37.182Z,96762.00
2018-08-22T05:50:07.386Z,96758.00
2018-08-22T05:52:38.183Z,96758.00
2018-08-22T05:55:08.288Z,96765.00
2018-08-22T05:57:38.684Z,96760.00
2018-08-22T06:00:08.808Z,96775.00
2018-08-22T06:02:38.940Z,96770.00
2018-08-22T06:05:09.077Z,96771.00
2018-08-22T06:07:39.180Z,96768.00
2018-08-22T06:10:09.301Z,96778.00
2018-08-22T06:12:43.356Z,96782.00
2018-08-22T06:15:13.709Z,96783.00
2018-08-22T06:17:44.427Z,96780.00
2018-08-22T06:26:24.178Z,96790.00
2018-08-22T06:28:54.337Z,96788.00
2018-08-22T06:31:26.566Z,96787.00
2018-08-22T06:33:56.736Z,96787.00
2018-08-22T06:36:26.994Z,96794.00
2018-08-22T06:38:57.050Z,96793.00
2018-08-22T06:41:27.185Z,96796.00
2018-08-22T06:43:57.299Z,96793.00
2018-08-22T06:46:27.509Z,96798.00
2018-08-22T06:48:57.616Z,96794.00
2018-08-22T06:51:27.792Z,96795.00
2018-08-22T06:53:57.950Z,96798.00
2018-08-22T06:56:28.091Z,96796.00
2018-08-22T06:58:58.253Z,96797.00
2018-08-22T07:01:28.416Z,96797.00
2018-08-22T07:03:58.577Z,96802.00
2018-08-22T07:06:28.729Z,96795.00
2018-08-22T07:08:58.996Z,96800.00
2018-08-22T07:11:29.117Z,96799.00
2018-08-22T07:13:59.250Z,96804.00
2018-08-22T07:16:29.317Z,96799.00
2018-08-22T07:18:59.428Z,96798.00
2018-08-22T07:21:29.565Z,96797.00
2018-08-22T07:23:59.677Z,96802.00
2018-08-22T07:26:29.781Z,96802.00
2018-08-22T07:28:59.892Z,96802.00
2018-08-22T07:31:30.006Z,96809.00
2018-08-22T07:34:00.148Z,96808.00
2018-08-22T07:36:30.252Z,96812.00
2018-08-22T07:39:00.389Z,96810.00
2018-08-22T07:41:30.497Z,96810.00
2018-08-22T07:44:00.606Z,96813.00
2018-08-22T07:46:30.752Z,96807.00
2018-08-22T07:49:00.815Z,96806.00
2018-08-22T07:51:30.932Z,96807.00
2018-08-22T07:54:01.034Z,96820.00
2018-08-22T07:56:31.109Z,96817.00
2018-08-22T07:59:16.493Z,96813.00
2018-08-22T08:01:46.651Z,96806.00
2018-08-22T08:04:16.737Z,96806.00
2018-08-22T08:06:46.900Z,96811.00
2018-08-22T08:09:17.020Z,96805.00
2018-08-22T08:11:47.122Z,96810.00
2018-08-22T08:14:17.242Z,96812.00
2018-08-22T08:16:47.355Z,96806.00
2018-08-22T08:19:17.540Z,96803.00
2018-08-22T08:21:47.641Z,96799.00
2018-08-22T08:24:17.724Z,96805.00
2018-08-22T08:26:47.845Z,96803.00
2018-08-22T08:29:17.934Z,96810.00
2018-08-22T08:31:48.076Z,96808.00
2018-08-22T08:34:18.160Z,96812.00
2018-08-22T08:36:48.289Z,96806.00
2018-08-22T08:39:18.408Z,96809.00
2018-08-22T08:41:48.668Z,96812.00
2018-08-22T08:44:18.620Z,96814.00
2018-08-22T08:46:49.115Z,96815.00
2018-08-22T08:49:19.234Z,96807.00
2018-08-22T08:51:59.931Z,96811.00
2018-08-22T08:54:30.413Z,96805.00
2018-08-22T08:57:00.526Z,96801.00
2018-08-22T08:59:30.685Z,96807.00
2018-08-22T09:02:00.775Z,96797.00
2018-08-22T09:04:30.896Z,96792.00
2018-08-22T09:07:01.062Z,96790.00
2018-08-22T09:09:31.164Z,96796.00
2018-08-22T09:12:01.736Z,96789.00
2018-08-22T09:14:31.833Z,96795.00
2018-08-22T09:17:01.921Z,96791.00
2018-08-22T09:19:32.055Z,96785.00
2018-08-22T09:22:02.224Z,96789.00
2018-08-22T09:24:32.378Z,96787.00
2018-08-22T09:27:02.517Z,96787.00
2018-08-22T09:29:32.712Z,96779.00
2018-08-22T09:32:03.419Z,96789.00
2018-08-22T09:34:33.543Z,96791.00
2018-08-22T09:37:05.120Z,96785.00
2018-08-22T09:39:38.290Z,96780.00
2018-08-22T09:42:09.215Z,96778.00
2018-08-22T09:44:39.310Z,96785.00
2018-08-22T09:47:09.401Z,96779.00
2018-08-22T09:49:39.500Z,96778.00
2018-08-22T09:52:09.605Z,96773.00
2018-08-22T09:54:59.004Z,96784.00
2018-08-22T09:57:29.841Z,96787.00
2018-08-22T10:00:00.026Z,96775.00
2018-08-22T10:02:30.092Z,96780.00
2018-08-22T10:05:01.093Z,96770.00
2018-08-22T10:07:31.304Z,96769.00
2018-08-22T10:10:01.394Z,96767.00
2018-08-22T10:12:31.448Z,96762.00
2018-08-22T10:15:01.557Z,96768.00
2018-08-22T10:17:31.732Z,96759.00
2018-08-22T10:20:02.709Z,96754.00
2018-08-22T10:22:37.237Z,96754.00
2018-08-22T10:25:07.497Z,96761.00
2018-08-22T10:27:37.725Z,96753.00
2018-08-22T10:30:09.341Z,96750.00
2018-08-22T10:32:39.604Z,96765.00
2018-08-22T10:35:10.778Z,96752.00
2018-08-22T10:37:41.168Z,96755.00
2018-08-22T10:40:11.552Z,96754.00
2018-08-22T10:42:41.652Z,96745.00
2018-08-22T10:45:11.757Z,96747.00
2018-08-22T10:47:41.817Z,96744.00
2018-08-22T10:50:11.911Z,96733.00
2018-08-22T10:52:42.000Z,96734.00
2018-08-22T10:55:12.277Z,96729.00
2018-08-22T10:57:42.426Z,96732.00
2018-08-22T11:00:12.612Z,96728.00
2018-08-22T11:02:43.497Z,96723.00
2018-08-22T11:05:13.580Z,96719.00
2018-08-22T11:07:43.804Z,96722.00
2018-08-22T11:10:14.053Z,96718.00
2018-08-22T11:12:44.283Z,96720.00
2018-08-22T11:15:14.361Z,96712.00
2018-08-22T11:17:44.637Z,96708.00
2018-08-22T11:20:14.788Z,96705.00
2018-08-22T11:23:01.506Z,96700.00
2018-08-22T11:25:48.297Z,96705.00
2018-08-22T11:28:35.068Z,96701.00
2018-08-22T11:31:21.933Z,96701.00
2018-08-22T11:34:08.778Z,96714.00
2018-08-22T11:36:37.370Z,96701.00
2018-08-22T11:39:08.333Z,96699.00
2018-08-22T11:41:38.830Z,96697.00
2018-08-22T11:44:09.085Z,96696.00
2018-08-22T11:46:39.244Z,96692.00
2018-08-22T11:49:09.360Z,96689.00
2018-08-22T11:51:39.596Z,96695.00
2018-08-22T11:54:10.025Z,96690.00
2018-08-22T11:56:40.108Z,96690.00
2018-08-22T11:59:10.236Z,96685.00
2018-08-22T12:01:40.313Z,96683.00
2018-08-22T12:04:10.521Z,96681.00
2018-08-22T12:06:40.697Z,96683.00
2018-08-22T12:09:12.149Z,96678.00
2018-08-22T12:11:43.007Z,96671.00
2018-08-22T12:14:13.100Z,96673.00
2018-08-22T12:16:43.192Z,96672.00
2018-08-22T12:19:13.280Z,96671.00
2018-08-22T12:21:43.535Z,96673.00
2018-08-22T12:24:13.662Z,96667.00
2018-08-22T12:26:43.806Z,96665.00
2018-08-22T12:29:13.897Z,96656.00
2018-08-22T12:31:44.351Z,96662.00
2018-08-22T12:34:14.429Z,96650.00
2018-08-22T12:36:44.538Z,96656.00
2018-08-22T12:39:14.843Z,96654.00
2018-08-22T12:41:44.902Z,96652.00
2018-08-22T12:44:14.988Z,96648.00
2018-08-22T12:46:45.097Z,96642.00
2018-08-22T12:49:15.208Z,96642.00
2018-08-22T12:51:45.304Z,96639.00
2018-08-22T12:54:15.396Z,96640.00
2018-08-22T12:56:45.526Z,96635.00
2018-08-22T12:59:15.776Z,96629.00
2018-08-22T13:01:46.004Z,96628.00
2018-08-22T13:04:16.072Z,96627.00
2018-08-22T13:06:46.145Z,96627.00
2018-08-22T13:09:16.225Z,96617.00
2018-08-22T13:11:46.331Z,96608.00
2018-08-22T13:14:16.444Z,96611.00
2018-08-22T13:16:46.548Z,96610.00
2018-08-22T13:19:16.613Z,96602.00
2018-08-22T13:21:46.788Z,96613.00
2018-08-22T13:24:16.860Z,96607.00
2018-08-22T13:26:46.968Z,96605.00
2018-08-22T13:29:17.052Z,96611.00
2018-08-22T13:31:47.181Z,96604.00
2018-08-22T13:34:17.252Z,96602.00
2018-08-22T13:36:47.386Z,96595.00
2018-08-22T13:39:17.517Z,96592.00
2018-08-22T13:41:47.587Z,96588.00
2018-08-22T13:44:17.701Z,96584.00
2018-08-22T13:46:47.792Z,96582.00
2018-08-22T13:49:17.864Z,96582.00
2018-08-22T13:51:47.948Z,96583.00
2018-08-22T13:54:18.024Z,96575.00
2018-08-22T13:56:48.244Z,96575.00
2018-08-22T13:59:18.424Z,96571.00
2018-08-22T14:01:48.754Z,96567.00
2018-08-22T14:04:18.875Z,96562.00
2018-08-22T14:06:49.124Z,96566.00
2018-08-22T14:09:19.192Z,96560.00
2018-08-22T14:11:49.809Z,96557.00
2018-08-22T14:14:20.271Z,96560.00
2018-08-22T14:16:50.613Z,96555.00
2018-08-22T14:19:21.000Z,96560.00
2018-08-22T14:21:51.316Z,96549.00
2018-08-22T14:24:21.405Z,96557.00
2018-08-22T14:26:51.520Z,96550.00
2018-08-22T14:29:21.953Z,96555.00
2018-08-22T14:31:52.028Z,96547.00
2018-08-22T14:34:22.360Z,96539.00
2018-08-22T14:36:52.465Z,96542.00
2018-08-22T14:39:22.793Z,96541.00
2018-08-22T14:41:52.849Z,96543.00
2018-08-22T14:44:22.920Z,96534.00
2018-08-22T14:46:53.372Z,96532.00
2018-08-22T14:49:23.693Z,96526.00
2018-08-22T14:51:53.833Z,96535.00
2018-08-22T14:54:24.076Z,96532.00
2018-08-22T14:56:54.547Z,96536.00
2018-08-22T14:59:24.669Z,96535.00
2018-08-22T15:02:03.657Z,96525.00
2018-08-22T15:04:33.732Z,96527.00
2018-08-22T15:07:03.864Z,96524.00
2018-08-22T15:09:33.976Z,96523.00
2018-08-22T15:12:04.096Z,96518.00
2018-08-22T15:14:34.196Z,96520.00
2018-08-22T15:17:04.448Z,96524.00
2018-08-22T15:19:34.556Z,96516.00
2018-08-22T15:22:05.199Z,96520.00
2018-08-22T15:24:35.471Z,96512.00
2018-08-22T15:27:05.860Z,96513.00
2018-08-22T15:29:35.952Z,96513.00
2018-08-22T15:32:06.323Z,96518.00
2018-08-22T15:34:52.829Z,96512.00
2018-08-22T15:37:23.532Z,96514.00
2018-08-22T15:39:54.078Z,96512.00
2018-08-22T15:42:24.676Z,96504.00
2018-08-22T15:44:54.808Z,96506.00
2018-08-22T15:47:24.979Z,96507.00
2018-08-22T15:49:55.189Z,96496.00
2018-08-22T15:52:25.452Z,96494.00
2018-08-22T15:55:12.565Z,96498.00
2018-08-22T15:57:59.686Z,96497.00
2018-08-22T16:00:37.450Z,96497.00
2018-08-22T16:03:08.646Z,96492.00
2018-08-22T16:05:40.294Z,96490.00
2018-08-22T16:08:10.980Z,96476.00
2018-08-22T16:10:41.056Z,96476.00
2018-08-22T16:13:17.805Z,96480.00
2018-08-22T16:15:50.004Z,96471.00
2018-08-22T16:18:20.436Z,96476.00
2018-08-22T16:20:58.568Z,96478.00
2018-08-22T16:23:31.001Z,96477.00
2018-08-22T16:26:02.128Z,96476.00
2018-08-22T16:28:50.385Z,96484.00
2018-08-22T16:31:21.403Z,96490.00
2018-08-22T16:33:51.464Z,96487.00
2018-08-22T16:36:25.653Z,96486.00
2018-08-22T16:38:56.097Z,96485.00
2018-08-22T16:41:26.249Z,96485.00
2018-08-22T16:43:56.412Z,96488.00
2018-08-22T16:46:26.465Z,96485.00
2018-08-22T16:48:56.745Z,96490.00
2018-08-22T16:51:26.873Z,96492.00
2018-08-22T16:54:02.752Z,96494.00
2018-08-22T16:56:34.033Z,96495.00
2018-08-22T16:59:11.359Z,96497.00
2018-08-22T17:01:47.185Z,96498.00
2018-08-22T17:04:17.281Z,96503.00
2018-08-22T17:06:48.005Z,96502.00
2018-08-22T17:09:18.143Z,96498.00
2018-08-22T17:11:48.376Z,96501.00
2018-08-22T17:14:18.505Z,96499.00
2018-08-22T17:16:48.611Z,96499.00
2018-08-22T17:19:18.720Z,96505.00
2018-08-22T17:21:48.852Z,96502.00
2018-08-22T17:24:19.024Z,96501.00
2018-08-22T17:26:49.093Z,96503.00
2018-08-22T17:29:19.220Z,96514.00
2018-08-22T17:31:54.364Z,96519.00
2018-08-22T17:34:24.465Z,96519.00
2018-08-22T17:37:06.402Z,96515.00
2018-08-22T17:39:36.556Z,96518.00
2018-08-22T17:42:06.548Z,96520.00
2018-08-22T17:44:36.630Z,96524.00
2018-08-22T17:47:06.740Z,96524.00
2018-08-22T17:49:36.867Z,96525.00
2018-08-22T17:52:10.560Z,96527.00
2018-08-22T17:54:40.776Z,96529.00
2018-08-22T17:57:22.442Z,96531.00
2018-08-22T17:59:52.696Z,96535.00
2018-08-22T18:02:22.821Z,96539.00
2018-08-22T18:04:59.985Z,96535.00
2018-08-22T18:07:30.197Z,96544.00
2018-08-22T18:10:00.634Z,96538.00
2018-08-22T18:12:30.777Z,96537.00
2018-08-22T18:15:02.533Z,96534.00
2018-08-22T18:17:32.679Z,96546.00
2018-08-22T18:20:02.785Z,96547.00
2018-08-22T18:22:35.537Z,96551.00
2018-08-22T18:25:06.225Z,96553.00
2018-08-22T18:27:36.377Z,96564.00
2018-08-22T18:30:09.685Z,96560.00
2018-08-22T18:32:39.848Z,96555.00
2018-08-22T18:35:10.987Z,96559.00
2018-08-22T18:37:41.591Z,96564.00
2018-08-22T18:40:35.200Z,96566.00
2018-08-22T18:43:06.496Z,96567.00
2018-08-22T18:45:42.140Z,96574.00
2018-08-22T18:48:12.260Z,96573.00
2018-08-22T18:50:42.484Z,96573.00
2018-08-22T18:53:12.700Z,96576.00
2018-08-22T18:55:42.815Z,96581.00
2018-08-22T18:58:12.921Z,96581.00
2018-08-22T19:00:43.025Z,96572.00
2018-08-22T19:03:13.101Z,96581.00
2018-08-22T19:05:43.173Z,96575.00
2018-08-22T19:08:17.973Z,96578.00
2018-08-22T19:10:49.908Z,96578.00
2018-08-22T19:13:23.552Z,96580.00
2018-08-22T19:15:56.128Z,96578.00
2018-08-22T19:18:26.448Z,96576.00
2018-08-22T19:20:58.820Z,96573.00
2018-08-22T19:23:29.196Z,96571.00
2018-08-22T19:26:00.172Z,96566.00
2018-08-22T19:28:30.261Z,96567.00
2018-08-22T19:31:00.396Z,96562.00
2018-08-22T19:33:30.522Z,96568.00
2018-08-22T19:36:00.662Z,96559.00
2018-08-22T19:38:30.727Z,96559.00
2018-08-22T19:41:19.884Z,96560.00
2018-08-22T19:43:49.964Z,96564.00
2018-08-22T19:46:20.108Z,96568.00
2018-08-22T19:48:50.269Z,96560.00
2018-08-22T19:51:20.779Z,96564.00
2018-08-22T19:54:02.747Z,96557.00
2018-08-22T19:56:32.932Z,96564.00
2018-08-22T19:59:03.688Z,96560.00
2018-08-22T20:01:35.311Z,96562.00
2018-08-22T20:04:05.655Z,96563.00
2018-08-22T20:06:35.763Z,96568.00
2018-08-22T20:09:06.673Z,96569.00
2018-08-22T20:11:36.756Z,96566.00
2018-08-22T20:14:07.347Z,96565.00
2018-08-22T20:16:37.459Z,96565.00
2018-08-22T20:19:07.536Z,96569.00
2018-08-22T20:21:39.127Z,96562.00
2018-08-22T20:24:10.835Z,96560.00
2018-08-22T20:26:50.680Z,96563.00
2018-08-22T20:29:22.962Z,96573.00
2018-08-22T20:31:53.048Z,96572.00
2018-08-22T20:34:23.134Z,96569.00
2018-08-22T20:36:53.249Z,96574.00
2018-08-22T20:39:23.325Z,96570.00
2018-08-22T20:41:57.736Z,96571.00
2018-08-22T20:44:27.897Z,96573.00
2018-08-22T20:46:58.056Z,96573.00
2018-08-22T20:49:28.190Z,96566.00
2018-08-22T20:51:58.272Z,96565.00
2018-08-22T20:54:28.397Z,96572.00
2018-08-22T20:57:00.382Z,96572.00
2018-08-22T20:59:30.520Z,96576.00
2018-08-22T21:02:04.791Z,96573.00
2018-08-22T21:04:35.761Z,96581.00
2018-08-22T21:07:06.258Z,96581.00
2018-08-22T21:09:36.365Z,96578.00
2018-08-22T21:12:06.467Z,96575.00
2018-08-22T21:14:36.634Z,96585.00
2018-08-22T21:17:06.723Z,96580.00
2018-08-22T21:19:36.808Z,96572.00
2018-08-22T21:22:25.112Z,96578.00
2018-08-22T21:24:56.840Z,96579.00
2018-08-22T21:27:26.871Z,96578.00
2018-08-22T21:29:56.947Z,96577.00
2018-08-22T21:32:27.032Z,96576.00
2018-08-22T21:34:57.120Z,96569.00
2018-08-22T21:37:29.750Z,96565.00
2018-08-22T21:39:59.837Z,96564.00
2018-08-22T21:42:33.847Z,96568.00
2018-08-22T21:45:04.061Z,96564.00
2018-08-22T21:47:34.152Z,96565.00
2018-08-22T21:50:04.260Z,96565.00
2018-08-22T21:52:59.700Z,96566.00
2018-08-22T21:55:46.261Z,96572.00
2018-08-22T21:58:16.345Z,96568.00
2018-08-22T22:00:46.504Z,96571.00
2018-08-22T22:03:21.713Z,96575.00
2018-08-22T22:05:56.264Z,96566.00
2018-08-22T22:08:26.328Z,96570.00
2018-08-22T22:11:00.236Z,96560.00
2018-08-22T22:13:30.422Z,96564.00
2018-08-22T22:16:02.552Z,96572.00
2018-08-22T22:18:33.666Z,96552.00
2018-08-22T22:21:10.801Z,96563.00
2018-08-22T22:23:48.036Z,96559.00
2018-08-22T22:26:19.272Z,96560.00
2018-08-22T22:28:49.388Z,96558.00
2018-08-22T22:31:19.515Z,96548.00
2018-08-22T22:34:07.954Z,96544.00
2018-08-22T22:36:38.120Z,96543.00
2018-08-22T22:39:26.013Z,96541.00
2018-08-22T22:41:56.083Z,96537.00
2018-08-22T22:44:26.172Z,96537.00
2018-08-22T22:46:56.252Z,96536.00
2018-08-22T22:49:26.316Z,96536.00
2018-08-22T22:51:56.476Z,96534.00
2018-08-22T22:54:35.836Z,96527.00
2018-08-22T22:57:06.054Z,96529.00
2018-08-22T22:59:36.124Z,96524.00
2018-08-22T23:02:06.504Z,96529.00
2018-08-22T23:04:47.424Z,96531.00
2018-08-22T23:07:26.825Z,96528.00
2018-08-22T23:09:58.509Z,96530.00
2018-08-22T23:12:47.435Z,96521.00
2018-08-22T23:15:24.728Z,96520.00
2018-08-22T23:17:56.696Z,96523.00
2018-08-22T23:20:30.772Z,96516.00
2018-08-22T23:23:00.931Z,96517.00
2018-08-22T23:25:31.798Z,96511.00
2018-08-22T23:28:01.895Z,96514.00
2018-08-22T23:30:37.088Z,96514.00
2018-08-22T23:33:07.445Z,96511.00
2018-08-22T23:35:37.616Z,96506.00
2018-08-22T23:38:16.184Z,96509.00
2018-08-22T23:40:47.687Z,96507.00
2018-08-22T23:43:18.784Z,96503.00
2018-08-22T23:45:57.577Z,96502.00
2018-08-22T23:48:32.833Z,96501.00
2018-08-22T23:51:06.044Z,96499.00
2018-08-22T23:53:52.629Z,96494.00
2018-08-22T23:56:23.903Z,96494.00
2018-08-22T23:58:54.540Z,96487.00
